ESMS/MMX METAR and TAF weather

Enter ICAO airport designator
Station Type Date Time Source
ESMS METAR 2024/04/15 08:20 UTC NOAA

ESMS 150820Z 24007KT 210V270 9999 BKN028 08/01 Q1008


Station Type Date Time Source
ESMS Decoded METAR 2024/04/15 08:20 UTC NOAA

Malmo / Sturup, Sweden (ESMS) 55-33N 013-22E
Apr 15, 2024 - 04:20 AM EDT / 2024.04.15 0820 UTC
Wind: from the WSW (240 degrees) at 8 MPH (7 KT) (direction variable):0
Visibility: greater than 7 mile(s):0
Sky conditions: mostly cloudy
Temperature: 46 F (8 C)
Dew Point: 33 F (1 C)
Relative Humidity: 61%
Pressure (altimeter): 29.77 in. Hg (1008 hPa)
ob: ESMS 150820Z 24007KT 210V270 9999 BKN028 08/01 Q1008
cycle: 8

Station Type Date Time Source
ESMS TAF 2024/04/15 09:12 UTC NOAA